createdAt,value
2022-10-13T00:00:58.632Z,60.58
2022-10-13T00:03:25.557Z,60.58
2022-10-13T00:05:52.438Z,60.43
2022-10-13T00:08:21.594Z,60.57
2022-10-13T00:10:50.864Z,61.53
2022-10-13T00:13:22.251Z,61.15
2022-10-13T00:15:49.058Z,60.52
2022-10-13T00:18:16.700Z,62.47
2022-10-13T00:20:46.610Z,61.96
2022-10-13T00:23:14.005Z,61.61
2022-10-13T00:25:46.498Z,60.97
2022-10-13T00:28:14.435Z,61.20
2022-10-13T00:30:41.533Z,61.18
2022-10-13T00:33:09.358Z,62.18
2022-10-13T00:35:44.423Z,61.79
2022-10-13T00:38:11.868Z,61.97
2022-10-13T00:40:48.850Z,61.87
2022-10-13T00:43:19.770Z,61.83
2022-10-13T00:45:49.849Z,61.96
2022-10-13T00:48:27.612Z,60.88
2022-10-13T00:50:55.342Z,61.16
2022-10-13T00:53:24.360Z,61.19
2022-10-13T00:55:52.218Z,60.41
2022-10-13T00:58:23.294Z,60.97
2022-10-13T01:00:52.297Z,61.14
2022-10-13T01:03:20.672Z,62.29
2022-10-13T01:05:48.466Z,61.75
2022-10-13T01:08:15.585Z,64.08
2022-10-13T01:11:03.572Z,62.50
2022-10-13T01:13:37.699Z,61.72
2022-10-13T01:16:04.970Z,61.42
2022-10-13T01:18:43.879Z,61.85
2022-10-13T01:21:17.961Z,61.78
2022-10-13T01:24:22.754Z,61.93
2022-10-13T01:27:08.168Z,61.60
2022-10-13T01:29:56.414Z,61.89
2022-10-13T01:32:29.562Z,61.01
2022-10-13T01:34:57.971Z,60.82
2022-10-13T01:38:16.567Z,60.57
2022-10-13T01:40:49.990Z,60.68
2022-10-13T01:43:19.620Z,60.85
2022-10-13T01:46:02.279Z,61.52
2022-10-13T01:48:29.960Z,60.80
2022-10-13T01:50:58.503Z,60.19
2022-10-13T01:53:26.147Z,60.21
2022-10-13T01:55:58.644Z,61.80
2022-10-13T01:58:35.490Z,64.36
2022-10-13T02:01:41.251Z,64.50
2022-10-13T02:04:34.968Z,63.02
2022-10-13T02:07:14.409Z,63.17
2022-10-13T02:09:50.489Z,62.49
2022-10-13T02:12:24.411Z,62.16
2022-10-13T02:14:53.132Z,61.03
2022-10-13T02:17:20.185Z,60.94
2022-10-13T02:19:46.947Z,61.39
2022-10-13T02:22:16.028Z,60.95
2022-10-13T02:24:42.970Z,60.86
2022-10-13T02:27:09.669Z,61.21
2022-10-13T02:29:56.145Z,60.82
2022-10-13T02:32:27.213Z,60.04
2022-10-13T02:34:53.864Z,61.11
2022-10-13T02:37:20.518Z,61.15
2022-10-13T02:39:47.307Z,62.45
2022-10-13T02:42:16.554Z,63.74
2022-10-13T02:44:43.179Z,64.05
2022-10-13T02:47:09.781Z,63.38
2022-10-13T02:49:36.457Z,62.78
2022-10-13T02:52:03.131Z,62.09
2022-10-13T02:54:29.721Z,62.97
2022-10-13T02:56:56.302Z,63.48
2022-10-13T02:59:22.979Z,63.33
2022-10-13T03:01:49.530Z,63.18
2022-10-13T03:04:16.244Z,64.58
2022-10-13T03:06:42.831Z,63.85
2022-10-13T03:09:10.566Z,63.35
2022-10-13T03:11:38.557Z,63.63
2022-10-13T03:14:05.189Z,63.52
2022-10-13T03:16:31.810Z,62.77
2022-10-13T03:18:58.455Z,63.83
2022-10-13T03:21:25.733Z,63.49
2022-10-13T03:23:52.409Z,65.48
2022-10-13T03:26:19.067Z,64.21
2022-10-13T03:28:50.641Z,64.00
2022-10-13T03:31:17.939Z,63.01
2022-10-13T03:33:45.725Z,63.14
2022-10-13T03:36:15.746Z,62.89
2022-10-13T03:38:42.404Z,63.57
2022-10-13T03:41:12.288Z,62.86
2022-10-13T03:43:39.691Z,62.38
2022-10-13T03:46:07.824Z,62.62
2022-10-13T03:48:35.658Z,62.93
2022-10-13T03:51:11.732Z,63.72
2022-10-13T03:53:44.966Z,63.58
2022-10-13T03:56:17.751Z,63.96
2022-10-13T03:58:54.148Z,64.25
2022-10-13T04:01:26.892Z,63.52
2022-10-13T04:03:55.750Z,63.09
2022-10-13T04:06:23.144Z,62.52
2022-10-13T04:08:50.185Z,62.38
2022-10-13T04:11:17.390Z,62.35
2022-10-13T04:13:47.097Z,62.90
2022-10-13T04:16:19.540Z,63.09
2022-10-13T04:18:50.791Z,62.72
2022-10-13T04:21:17.385Z,61.96
2022-10-13T04:23:43.980Z,62.50
2022-10-13T04:26:22.268Z,62.71
2022-10-13T04:28:50.226Z,61.74
2022-10-13T04:31:17.624Z,62.16
2022-10-13T04:33:45.267Z,63.43
2022-10-13T04:36:12.880Z,62.40
2022-10-13T04:38:40.254Z,62.27
2022-10-13T04:41:08.954Z,62.46
2022-10-13T04:43:36.046Z,63.86
2022-10-13T04:46:14.681Z,63.10
2022-10-13T04:48:41.817Z,63.85
2022-10-13T04:51:16.642Z,64.13
2022-10-13T04:53:43.318Z,63.63
2022-10-13T04:56:14.534Z,63.60
2022-10-13T04:58:42.774Z,63.96
2022-10-13T05:01:18.853Z,64.11
2022-10-13T05:03:50.236Z,64.83
2022-10-13T05:06:22.391Z,65.48
2022-10-13T05:08:49.728Z,65.12
2022-10-13T05:11:16.890Z,64.88
2022-10-13T05:13:43.523Z,64.61
2022-10-13T05:16:11.886Z,64.81
2022-10-13T05:18:39.506Z,65.11
2022-10-13T05:21:15.690Z,64.69
2022-10-13T05:23:43.363Z,65.44
2022-10-13T05:26:11.475Z,64.56
2022-10-13T05:28:38.882Z,65.07
2022-10-13T05:31:20.822Z,65.27
2022-10-13T05:33:48.656Z,65.35
2022-10-13T05:36:32.105Z,64.51
2022-10-13T05:39:01.121Z,64.96
2022-10-13T05:41:28.893Z,65.34
2022-10-13T05:44:03.316Z,65.01
2022-10-13T05:46:30.315Z,64.67
2022-10-13T05:48:56.935Z,65.13
2022-10-13T05:51:28.306Z,64.91
2022-10-13T05:54:02.280Z,65.13
2022-10-13T05:56:34.983Z,65.58
2022-10-13T05:59:06.798Z,67.34
2022-10-13T06:01:39.832Z,66.96
2022-10-13T06:04:12.063Z,66.03
2022-10-13T06:06:40.107Z,65.95
2022-10-13T06:09:06.931Z,65.64
2022-10-13T06:11:33.644Z,66.72
2022-10-13T06:14:00.298Z,65.83
2022-10-13T06:16:27.097Z,65.88
2022-10-13T06:18:54.823Z,65.43
2022-10-13T06:21:22.023Z,64.44
2022-10-13T06:23:48.619Z,63.76
2022-10-13T06:26:17.866Z,63.15
2022-10-13T06:28:49.123Z,63.97
2022-10-13T06:31:17.961Z,64.27
2022-10-13T06:33:44.988Z,64.98
2022-10-13T06:36:11.647Z,65.88
2022-10-13T06:38:38.276Z,66.09
2022-10-13T06:41:05.579Z,66.52
2022-10-13T06:43:40.212Z,65.35
2022-10-13T06:46:11.873Z,65.93
2022-10-13T06:48:38.798Z,65.94
2022-10-13T06:51:08.206Z,66.18
2022-10-13T06:53:35.634Z,65.38
2022-10-13T06:56:05.583Z,66.08
2022-10-13T06:58:32.635Z,65.16
2022-10-13T07:00:59.311Z,64.60
2022-10-13T07:03:26.135Z,65.09
2022-10-13T07:05:53.008Z,64.57
2022-10-13T07:08:20.755Z,65.13
2022-10-13T07:10:47.387Z,65.43
2022-10-13T07:13:14.097Z,64.90
2022-10-13T07:15:41.137Z,65.32
2022-10-13T07:18:07.873Z,66.04
2022-10-13T07:20:35.250Z,65.77
2022-10-13T07:23:02.041Z,65.33
2022-10-13T07:25:28.781Z,65.06
2022-10-13T07:27:55.635Z,64.79
2022-10-13T07:30:22.348Z,67.40
2022-10-13T07:32:49.497Z,66.56
2022-10-13T07:35:16.198Z,66.03
2022-10-13T07:37:42.860Z,65.99
2022-10-13T07:40:10.134Z,66.29
2022-10-13T07:42:36.824Z,65.68
2022-10-13T07:45:03.958Z,64.99
2022-10-13T07:47:31.137Z,64.93
2022-10-13T07:49:57.723Z,64.39
2022-10-13T07:52:24.440Z,64.05
2022-10-13T07:54:51.654Z,64.54
2022-10-13T07:57:18.514Z,63.43
2022-10-13T07:59:45.256Z,64.16
2022-10-13T08:02:13.263Z,65.34
2022-10-13T08:04:40.022Z,64.54
2022-10-13T08:07:07.337Z,64.23
2022-10-13T08:09:34.225Z,62.72
2022-10-13T08:12:02.083Z,65.01
2022-10-13T08:14:30.077Z,64.23
2022-10-13T08:16:58.056Z,64.50
2022-10-13T08:19:26.534Z,64.48
2022-10-13T08:21:58.367Z,65.63
2022-10-13T08:24:26.927Z,63.66
2022-10-13T08:26:53.599Z,63.44
2022-10-13T08:29:23.050Z,63.29
2022-10-13T08:31:52.198Z,63.14
2022-10-13T08:34:19.376Z,61.90
2022-10-13T08:36:46.236Z,63.30
2022-10-13T08:39:14.007Z,62.46
2022-10-13T08:41:46.433Z,61.93
2022-10-13T08:45:10.941Z,62.07
2022-10-13T08:47:40.267Z,61.77
2022-10-13T08:50:20.977Z,61.08
2022-10-13T08:52:47.983Z,61.15
2022-10-13T08:55:24.797Z,61.63
2022-10-13T08:57:51.991Z,60.72
2022-10-13T09:00:21.812Z,61.31
2022-10-13T09:02:51.676Z,60.36
2022-10-13T09:05:41.400Z,61.03
2022-10-13T09:08:19.555Z,60.37
2022-10-13T09:10:47.177Z,59.75
2022-10-13T09:13:18.542Z,59.55
2022-10-13T09:15:52.629Z,60.27
2022-10-13T09:18:21.233Z,59.99
2022-10-13T09:20:47.853Z,60.34
2022-10-13T09:23:14.441Z,60.15
2022-10-13T09:25:48.276Z,58.19
2022-10-13T09:28:30.118Z,57.70
2022-10-13T09:31:04.966Z,56.63
2022-10-13T09:33:36.763Z,55.96
2022-10-13T09:36:03.360Z,54.84
2022-10-13T09:38:29.943Z,55.85
2022-10-13T09:41:03.793Z,56.34
2022-10-13T09:43:36.667Z,56.13
2022-10-13T09:46:18.749Z,54.74
2022-10-13T09:48:50.580Z,54.36
2022-10-13T09:51:37.675Z,53.86
2022-10-13T09:54:33.574Z,53.22
2022-10-13T09:57:11.920Z,53.48
2022-10-13T09:59:45.682Z,53.57
2022-10-13T10:02:33.612Z,52.47
2022-10-13T10:05:16.933Z,51.93
2022-10-13T10:07:47.688Z,51.34
2022-10-13T10:10:36.049Z,50.74
2022-10-13T10:13:12.803Z,49.72
2022-10-13T10:16:02.716Z,49.02
2022-10-13T10:18:45.080Z,48.91
2022-10-13T10:21:49.980Z,49.26
2022-10-13T10:24:19.528Z,52.01
2022-10-13T10:27:06.694Z,50.45
2022-10-13T10:29:56.174Z,50.66
2022-10-13T10:32:40.198Z,52.42
2022-10-13T10:35:33.032Z,52.74
2022-10-13T10:38:24.397Z,51.60
2022-10-13T10:41:03.861Z,51.67
2022-10-13T10:43:49.008Z,52.56
2022-10-13T10:46:23.249Z,50.96
2022-10-13T10:48:54.977Z,51.22
2022-10-13T10:51:30.850Z,52.08
2022-10-13T10:54:18.981Z,50.83
2022-10-13T10:57:08.452Z,49.67
2022-10-13T10:59:50.792Z,50.68
2022-10-13T11:02:36.343Z,48.58
2022-10-13T11:05:06.389Z,48.84
2022-10-13T11:07:33.312Z,49.05
2022-10-13T11:09:59.853Z,49.00
2022-10-13T11:12:46.443Z,47.82
2022-10-13T11:15:20.909Z,50.13
2022-10-13T11:17:47.554Z,47.67
2022-10-13T11:20:17.156Z,47.11
2022-10-13T11:23:03.727Z,46.53
2022-10-13T11:25:47.682Z,46.21
2022-10-13T11:28:23.187Z,47.75
2022-10-13T11:30:55.456Z,47.24
2022-10-13T11:33:38.614Z,47.75
2022-10-13T11:36:33.133Z,47.10
2022-10-13T11:39:17.549Z,46.46
2022-10-13T11:42:02.776Z,44.98
2022-10-13T11:44:58.008Z,46.27
2022-10-13T11:47:56.555Z,45.70
2022-10-13T11:50:48.562Z,45.46
2022-10-13T11:53:22.794Z,45.59
2022-10-13T11:55:58.306Z,46.39
2022-10-13T11:58:27.744Z,47.27
2022-10-13T12:01:06.559Z,47.60
2022-10-13T12:03:38.222Z,47.72
2022-10-13T12:06:32.303Z,47.94
2022-10-13T12:09:02.293Z,47.34
2022-10-13T12:11:33.817Z,48.00
2022-10-13T12:14:01.469Z,47.49
2022-10-13T12:16:29.522Z,48.44
2022-10-13T12:19:19.041Z,48.02
2022-10-13T12:21:53.609Z,48.17
2022-10-13T12:24:23.703Z,47.97
2022-10-13T12:26:51.363Z,48.25
2022-10-13T12:29:21.430Z,49.32
2022-10-13T12:31:50.030Z,48.52
2022-10-13T12:34:30.948Z,47.80
2022-10-13T12:37:18.814Z,48.44
2022-10-13T12:39:46.261Z,47.46
2022-10-13T12:42:15.290Z,46.92
2022-10-13T12:44:42.366Z,46.63
2022-10-13T12:47:44.016Z,47.45
2022-10-13T12:50:23.768Z,46.55
2022-10-13T12:53:03.227Z,47.03
2022-10-13T12:55:30.184Z,46.78
2022-10-13T12:57:56.951Z,46.52
2022-10-13T13:00:26.806Z,45.87
2022-10-13T13:03:06.149Z,45.60
2022-10-13T13:05:40.716Z,47.61
2022-10-13T13:08:29.691Z,45.40
2022-10-13T13:10:58.305Z,46.08
2022-10-13T13:13:25.437Z,45.60
2022-10-13T13:15:52.996Z,44.87
2022-10-13T13:18:32.197Z,45.80
2022-10-13T13:20:58.895Z,45.35
2022-10-13T13:23:27.240Z,46.07
2022-10-13T13:26:23.485Z,45.94
2022-10-13T13:28:52.719Z,45.94
2022-10-13T13:31:22.312Z,46.81
2022-10-13T13:33:49.659Z,47.18
2022-10-13T13:36:19.284Z,45.96
2022-10-13T13:38:47.967Z,46.43
2022-10-13T13:41:15.919Z,44.79
2022-10-13T13:43:42.708Z,45.55
2022-10-13T13:46:19.540Z,44.46
2022-10-13T13:48:46.280Z,45.28
2022-10-13T13:51:13.424Z,45.40
2022-10-13T13:53:40.436Z,45.28
2022-10-13T13:56:12.921Z,44.46
2022-10-13T13:58:39.682Z,43.72
2022-10-13T14:01:06.271Z,44.74
2022-10-13T14:03:32.959Z,44.89
2022-10-13T14:05:59.529Z,45.17
2022-10-13T14:08:31.272Z,45.52
2022-10-13T14:10:58.782Z,45.54
2022-10-13T14:13:25.421Z,46.43
2022-10-13T14:15:59.776Z,45.76
2022-10-13T14:18:26.924Z,46.92
2022-10-13T14:20:53.606Z,46.66
2022-10-13T14:23:20.311Z,46.58
2022-10-13T14:25:46.867Z,47.58
2022-10-13T14:28:18.020Z,47.55
2022-10-13T14:30:45.297Z,47.65
2022-10-13T14:33:11.939Z,47.18
2022-10-13T14:35:38.556Z,47.29
2022-10-13T14:38:05.975Z,47.00
2022-10-13T14:40:33.682Z,47.54
2022-10-13T14:43:00.252Z,47.83
2022-10-13T14:45:27.098Z,48.13
2022-10-13T14:47:53.739Z,49.25
2022-10-13T14:50:20.391Z,49.33
2022-10-13T14:52:51.812Z,50.52
2022-10-13T14:55:18.405Z,49.59
2022-10-13T14:57:45.068Z,49.23
2022-10-13T15:00:13.660Z,49.92
2022-10-13T15:02:40.348Z,49.84
2022-10-13T15:05:07.248Z,49.90
2022-10-13T15:07:36.802Z,50.06
2022-10-13T15:10:06.646Z,49.80
2022-10-13T15:12:33.713Z,49.89
2022-10-13T15:15:00.343Z,49.97
2022-10-13T15:17:28.005Z,50.85
2022-10-13T15:19:54.732Z,49.96
2022-10-13T15:22:21.654Z,48.97
2022-10-13T15:24:48.382Z,49.36
2022-10-13T15:27:15.283Z,49.46
2022-10-13T15:29:41.913Z,49.11
2022-10-13T15:32:12.491Z,49.79
2022-10-13T15:34:40.126Z,49.92
2022-10-13T15:37:07.057Z,49.82
2022-10-13T15:39:33.821Z,49.80
2022-10-13T15:42:00.412Z,49.48
2022-10-13T15:44:27.660Z,51.28
2022-10-13T15:47:07.380Z,50.45
2022-10-13T15:49:39.442Z,50.69
2022-10-13T15:52:06.295Z,51.23
2022-10-13T15:54:32.994Z,50.71
2022-10-13T15:56:59.859Z,51.19
2022-10-13T15:59:26.426Z,50.40
2022-10-13T16:01:53.077Z,50.74
2022-10-13T16:04:19.678Z,50.79
2022-10-13T16:06:46.353Z,51.34
2022-10-13T16:09:12.944Z,50.18
2022-10-13T16:11:39.688Z,50.58
2022-10-13T16:14:06.281Z,50.63
2022-10-13T16:16:32.899Z,51.75
2022-10-13T16:19:00.123Z,51.52
2022-10-13T16:21:26.951Z,51.51
2022-10-13T16:23:53.549Z,52.21
2022-10-13T16:26:20.892Z,51.41
2022-10-13T16:28:47.771Z,51.12
2022-10-13T16:31:16.219Z,51.89
2022-10-13T16:33:44.151Z,51.46
2022-10-13T16:36:13.800Z,51.16
2022-10-13T16:38:45.921Z,52.15
2022-10-13T16:41:15.570Z,51.55
2022-10-13T16:43:43.163Z,51.93
2022-10-13T16:46:13.465Z,51.91
2022-10-13T16:48:41.709Z,51.64
2022-10-13T16:51:11.505Z,52.15
2022-10-13T16:53:38.820Z,52.74
2022-10-13T16:56:06.798Z,52.91
2022-10-13T16:58:33.713Z,52.21
2022-10-13T17:01:09.439Z,52.72
2022-10-13T17:03:36.981Z,52.69
2022-10-13T17:06:03.881Z,51.91
2022-10-13T17:08:31.070Z,52.96
2022-10-13T17:10:59.428Z,53.18
2022-10-13T17:13:26.453Z,53.54
2022-10-13T17:15:54.823Z,53.91
2022-10-13T17:18:21.996Z,53.24
2022-10-13T17:20:59.429Z,52.96
2022-10-13T17:23:27.042Z,52.64
2022-10-13T17:25:54.156Z,53.43
2022-10-13T17:28:21.230Z,53.82
2022-10-13T17:31:09.525Z,53.09
2022-10-13T17:33:37.684Z,53.06
2022-10-13T17:36:13.380Z,53.63
2022-10-13T17:38:40.735Z,54.09
2022-10-13T17:41:09.503Z,54.29
2022-10-13T17:43:41.184Z,54.25
2022-10-13T17:46:40.815Z,53.98
2022-10-13T17:49:10.962Z,54.16
2022-10-13T17:51:38.145Z,53.59
2022-10-13T17:54:04.949Z,54.16
2022-10-13T17:56:31.865Z,54.34
2022-10-13T17:58:59.375Z,55.19
2022-10-13T18:01:27.717Z,55.43
2022-10-13T18:03:57.008Z,54.78
2022-10-13T18:06:32.632Z,54.79
2022-10-13T18:09:09.975Z,53.98
2022-10-13T18:11:37.421Z,55.96
2022-10-13T18:14:04.570Z,55.17
2022-10-13T18:16:31.298Z,55.41
2022-10-13T18:18:57.879Z,54.74
2022-10-13T18:21:27.774Z,54.38
2022-10-13T18:23:56.095Z,54.91
2022-10-13T18:26:24.024Z,55.71
2022-10-13T18:28:51.463Z,55.74
2022-10-13T18:31:24.257Z,56.01
2022-10-13T18:33:56.309Z,54.77
2022-10-13T18:36:24.649Z,55.15
2022-10-13T18:38:52.519Z,54.06
2022-10-13T18:41:21.340Z,54.40
2022-10-13T18:43:48.124Z,55.92
2022-10-13T18:46:19.049Z,55.74
2022-10-13T18:48:47.745Z,56.25
2022-10-13T18:51:16.722Z,56.30
2022-10-13T18:53:45.692Z,56.36
2022-10-13T18:56:19.054Z,56.64
2022-10-13T18:58:46.242Z,55.97
2022-10-13T19:01:16.196Z,55.56
2022-10-13T19:03:43.496Z,57.00
2022-10-13T19:06:13.322Z,55.95
2022-10-13T19:08:42.370Z,56.94
2022-10-13T19:11:12.551Z,57.87
2022-10-13T19:13:39.895Z,57.25
2022-10-13T19:16:07.506Z,57.94
2022-10-13T19:18:34.969Z,57.83
2022-10-13T19:21:01.752Z,57.81
2022-10-13T19:23:28.381Z,57.41
2022-10-13T19:25:55.102Z,57.78
2022-10-13T19:28:22.456Z,57.44
2022-10-13T19:30:54.487Z,57.30
2022-10-13T19:33:21.155Z,57.24
2022-10-13T19:35:49.273Z,58.32
2022-10-13T19:38:16.455Z,58.52
2022-10-13T19:40:46.384Z,58.55
2022-10-13T19:43:13.069Z,58.08
2022-10-13T19:45:47.638Z,59.10
2022-10-13T19:48:16.074Z,58.72
2022-10-13T19:50:43.723Z,58.86
2022-10-13T19:53:13.708Z,58.48
2022-10-13T19:55:42.319Z,58.81
2022-10-13T19:58:09.581Z,57.86
2022-10-13T20:00:36.787Z,57.87
2022-10-13T20:03:04.806Z,57.56
2022-10-13T20:05:31.727Z,57.39
2022-10-13T20:07:58.376Z,57.77
2022-10-13T20:10:25.147Z,57.88
2022-10-13T20:12:52.026Z,58.19
2022-10-13T20:15:18.700Z,57.88
2022-10-13T20:17:45.822Z,57.74
2022-10-13T20:20:12.640Z,57.57
2022-10-13T20:22:39.859Z,57.50
2022-10-13T20:25:07.712Z,58.26
2022-10-13T20:27:34.511Z,58.41
2022-10-13T20:30:01.422Z,58.58
2022-10-13T20:32:28.314Z,58.80
2022-10-13T20:34:54.908Z,58.00
2022-10-13T20:37:22.037Z,58.07
2022-10-13T20:39:48.805Z,57.17
2022-10-13T20:42:15.389Z,57.75
2022-10-13T20:44:42.076Z,57.61
2022-10-13T20:47:08.653Z,57.82
2022-10-13T20:49:35.352Z,58.25
2022-10-13T20:52:01.950Z,57.56
2022-10-13T20:54:28.535Z,58.03
2022-10-13T20:56:56.214Z,57.59
2022-10-13T20:59:22.896Z,58.56
2022-10-13T21:01:49.646Z,59.11
2022-10-13T21:04:16.568Z,58.82
2022-10-13T21:06:43.280Z,58.54
2022-10-13T21:09:10.889Z,59.45
2022-10-13T21:11:40.162Z,58.85
2022-10-13T21:14:08.599Z,58.54
2022-10-13T21:16:37.294Z,59.19
2022-10-13T21:19:08.553Z,59.51
2022-10-13T21:21:36.058Z,59.05
2022-10-13T21:24:05.175Z,59.06
2022-10-13T21:26:32.866Z,60.28
2022-10-13T21:29:00.179Z,61.18
2022-10-13T21:31:27.959Z,60.80
2022-10-13T21:33:55.443Z,60.27
2022-10-13T21:36:29.383Z,59.00
2022-10-13T21:38:58.802Z,60.11
2022-10-13T21:41:26.222Z,60.16
2022-10-13T21:43:52.999Z,58.73
2022-10-13T21:46:28.575Z,59.75
2022-10-13T21:48:57.655Z,60.18
2022-10-13T21:51:29.946Z,59.87
2022-10-13T21:53:59.865Z,59.95
2022-10-13T21:56:27.946Z,60.42
2022-10-13T21:58:55.071Z,59.33
2022-10-13T22:01:22.713Z,59.26
2022-10-13T22:03:53.533Z,58.98
2022-10-13T22:06:23.614Z,59.85
2022-10-13T22:08:51.631Z,60.07
2022-10-13T22:11:23.482Z,60.50
2022-10-13T22:13:50.713Z,60.63
2022-10-13T22:16:20.285Z,62.18
2022-10-13T22:18:47.502Z,62.13
2022-10-13T22:21:19.536Z,62.32
2022-10-13T22:23:46.415Z,62.92
2022-10-13T22:26:14.451Z,62.29
2022-10-13T22:28:42.596Z,61.70
2022-10-13T22:31:12.136Z,61.68
2022-10-13T22:33:40.290Z,61.38
2022-10-13T22:36:18.772Z,60.87
2022-10-13T22:38:46.413Z,60.64
2022-10-13T22:41:14.710Z,60.50
2022-10-13T22:43:46.646Z,61.54
2022-10-13T22:46:15.726Z,62.65
2022-10-13T22:48:42.813Z,62.09
2022-10-13T22:51:15.575Z,61.32
2022-10-13T22:53:42.270Z,62.08
2022-10-13T22:56:11.625Z,62.63
2022-10-13T22:58:38.478Z,61.77
2022-10-13T23:01:14.621Z,60.97
2022-10-13T23:03:41.912Z,61.20
2022-10-13T23:06:13.705Z,61.30
2022-10-13T23:08:41.074Z,60.75
2022-10-13T23:11:07.820Z,60.81
2022-10-13T23:13:34.460Z,61.67
2022-10-13T23:16:16.178Z,61.19
2022-10-13T23:18:43.542Z,61.78
2022-10-13T23:21:24.443Z,62.39
2022-10-13T23:24:05.630Z,62.25
2022-10-13T23:26:33.735Z,62.55
2022-10-13T23:29:00.657Z,63.96
2022-10-13T23:31:28.176Z,63.46
2022-10-13T23:33:55.270Z,63.48
2022-10-13T23:36:24.655Z,62.86
2022-10-13T23:38:58.544Z,63.08
2022-10-13T23:41:26.196Z,62.64
2022-10-13T23:43:52.833Z,62.86
2022-10-13T23:46:19.870Z,62.50
2022-10-13T23:48:46.435Z,62.80
2022-10-13T23:51:19.003Z,62.21
2022-10-13T23:53:46.425Z,62.76
2022-10-13T23:56:15.231Z,63.16
2022-10-13T23:58:43.682Z,62.92
